Grimsby

*Note: All times are displayed in the local standard time of the station location.
**Rain - Equipment is designed to accurately record liquid precipitation; under conditions when precipitation is not in liquid form, the data displayed may not properly reflect rainfall values.

Date Max Temp
(°C)
Min Temp
(°C)
Avg Temp
(°C)
Rain (mm) Avg RH (%)
Mon, Apr 23, 2018 11.6 -1.4 6.2 0.0 72.0
Sun, Apr 22, 2018 15.0 -4.9 6.5 0.0 62.8
Sat, Apr 21, 2018 13.8 -5.1 4.6 0.0 71.1
Fri, Apr 20, 2018 8.4 -1.8 2.7 0.0 74.1
Thu, Apr 19, 2018 3.6 -0.1 1.3 0.0 82.2
Wed, Apr 18, 2018 2.7 -0.2 1.2 0.0 93.4
Tue, Apr 17, 2018 0.9 -2.1 -0.3 0.0 90.2
DateTime Avg Temp (°C) Rain (mm) RH (%)
Tue, Apr 24, 2018 18:00 11.9 0.2 96.3
Tue, Apr 24, 2018 17:00 13.3 0.0 83.3
Tue, Apr 24, 2018 16:00 15.8 0.0 62.8
Tue, Apr 24, 2018 15:00 16.4 0.0 58.8
Tue, Apr 24, 2018 14:00 16.3 0.0 59.8
Tue, Apr 24, 2018 13:00 16.0 0.0 59.8
Tue, Apr 24, 2018 12:00 14.4 0.0 66.3
Tue, Apr 24, 2018 11:00 12.8 0.0 76.8
Tue, Apr 24, 2018 10:00 12.3 0.0 81.5
Tue, Apr 24, 2018 09:00 12.4 0.0 81.0
Tue, Apr 24, 2018 08:00 12.4 0.0 76.3
Tue, Apr 24, 2018 07:00 11.3 0.0 80.0
Tue, Apr 24, 2018 06:00 12.1 0.0 76.5
Tue, Apr 24, 2018 05:00 12.3 0.0 74.0
Tue, Apr 24, 2018 04:00 10.5 0.0 75.0
Tue, Apr 24, 2018 03:00 6.8 0.0 82.8
Tue, Apr 24, 2018 02:00 4.1 0.0 93.8
Tue, Apr 24, 2018 01:00 3.4 0.0 95.5
Tue, Apr 24, 2018 00:00 4.1 0.0 87.8
Mon, Apr 23, 2018 23:00 4.5 0.0 84.3
Mon, Apr 23, 2018 22:00 4.8 0.0 82.3
Mon, Apr 23, 2018 21:00 5.0 0.0 82.5
Mon, Apr 23, 2018 20:00 6.7 0.0 73.3
Mon, Apr 23, 2018 19:00 8.1 0.0 67.8
Mon, Apr 23, 2018 18:00 9.5 0.0 63.5
Mon, Apr 23, 2018 17:00 10.6 0.0 60.0
Mon, Apr 23, 2018 16:00 10.8 0.0 56.8
Mon, Apr 23, 2018 15:00 11.1 0.0 58.0
Mon, Apr 23, 2018 14:00 10.4 0.0 61.8
Mon, Apr 23, 2018 13:00 10.6 0.0 57.0
Mon, Apr 23, 2018 12:00 9.9 0.0 58.0
Mon, Apr 23, 2018 11:00 9.7 0.0 66.5
Mon, Apr 23, 2018 10:00 9.0 0.0 69.5
Mon, Apr 23, 2018 09:00 6.9 0.0 81.3
Mon, Apr 23, 2018 08:00 3.6 0.0 90.5
Mon, Apr 23, 2018 07:00 -0.9 0.0 99.5
Mon, Apr 23, 2018 06:00 -0.2 0.0 94.3
Mon, Apr 23, 2018 05:00 0.5 0.0 83.0
Mon, Apr 23, 2018 04:00 2.5 0.0 68.3
Mon, Apr 23, 2018 03:00 3.0 0.0 63.3
Mon, Apr 23, 2018 02:00 4.4 0.0 56.0
Mon, Apr 23, 2018 01:00 4.2 0.0 63.0
Mon, Apr 23, 2018 00:00 5.6 0.0 57.5
Sun, Apr 22, 2018 23:00 7.0 0.0 53.0
Sun, Apr 22, 2018 22:00 5.1 0.0 63.3
Sun, Apr 22, 2018 21:00 8.0 0.0 57.0
Sun, Apr 22, 2018 20:00 13.2 0.0 36.0
Sun, Apr 22, 2018 19:00 14.8 0.0 30.8


asterix Register now to access more data! asterix